sensor_id;sensor_type;location;lat;lon;timestamp;temperature;humidity
30174;DHT22;16985;50.814;8.530;2023-07-20T00:01:45;18.20;87.90
30174;DHT22;16985;50.814;8.530;2023-07-20T00:04:11;18.20;88.30
30174;DHT22;16985;50.814;8.530;2023-07-20T00:06:38;18.20;88.20
30174;DHT22;16985;50.814;8.530;2023-07-20T00:09:08;18.10;88.20
30174;DHT22;16985;50.814;8.530;2023-07-20T00:11:38;18.10;88.30
30174;DHT22;16985;50.814;8.530;2023-07-20T00:14:05;18.10;88.20
30174;DHT22;16985;50.814;8.530;2023-07-20T00:16:31;18.10;88.30
30174;DHT22;16985;50.814;8.530;2023-07-20T00:18:57;18.10;88.40
30174;DHT22;16985;50.814;8.530;2023-07-20T00:21:23;18.00;88.50
30174;DHT22;16985;50.814;8.530;2023-07-20T00:23:49;18.00;88.80
30174;DHT22;16985;50.814;8.530;2023-07-20T00:26:15;18.00;88.80
30174;DHT22;16985;50.814;8.530;2023-07-20T00:28:40;17.90;89.00
30174;DHT22;16985;50.814;8.530;2023-07-20T00:31:07;17.90;89.00
30174;DHT22;16985;50.814;8.530;2023-07-20T00:33:32;17.90;89.10
30174;DHT22;16985;50.814;8.530;2023-07-20T00:35:58;17.90;89.40
30174;DHT22;16985;50.814;8.530;2023-07-20T00:38:24;17.90;89.70
30174;DHT22;16985;50.814;8.530;2023-07-20T00:40:51;17.80;89.80
30174;DHT22;16985;50.814;8.530;2023-07-20T00:43:17;17.80;90.00
30174;DHT22;16985;50.814;8.530;2023-07-20T00:45:43;17.80;90.10
30174;DHT22;16985;50.814;8.530;2023-07-20T00:48:09;17.70;90.20
30174;DHT22;16985;50.814;8.530;2023-07-20T00:50:36;17.70;90.70
30174;DHT22;16985;50.814;8.530;2023-07-20T00:53:03;17.60;90.40
30174;DHT22;16985;50.814;8.530;2023-07-20T00:55:32;17.70;90.60
30174;DHT22;16985;50.814;8.530;2023-07-20T00:57:59;17.60;90.90
30174;DHT22;16985;50.814;8.530;2023-07-20T01:00:25;17.60;90.60
30174;DHT22;16985;50.814;8.530;2023-07-20T01:02:51;17.60;90.70
30174;DHT22;16985;50.814;8.530;2023-07-20T01:05:17;17.40;90.80
30174;DHT22;16985;50.814;8.530;2023-07-20T01:07:57;17.50;90.90
30174;DHT22;16985;50.814;8.530;2023-07-20T01:10:32;17.50;91.00
30174;DHT22;16985;50.814;8.530;2023-07-20T01:13:01;17.50;91.00
30174;DHT22;16985;50.814;8.530;2023-07-20T01:15:27;17.40;91.20
30174;DHT22;16985;50.814;8.530;2023-07-20T01:17:53;17.40;91.30
30174;DHT22;16985;50.814;8.530;2023-07-20T01:20:21;17.40;91.30
30174;DHT22;16985;50.814;8.530;2023-07-20T01:26:57;17.30;91.60
30174;DHT22;16985;50.814;8.530;2023-07-20T01:32:17;17.30;91.70
30174;DHT22;16985;50.814;8.530;2023-07-20T01:34:44;17.30;91.90
30174;DHT22;16985;50.814;8.530;2023-07-20T01:37:11;17.20;91.90
30174;DHT22;16985;50.814;8.530;2023-07-20T01:39:38;17.20;91.90
30174;DHT22;16985;50.814;8.530;2023-07-20T01:42:04;17.10;92.20
30174;DHT22;16985;50.814;8.530;2023-07-20T01:44:30;17.10;92.10
30174;DHT22;16985;50.814;8.530;2023-07-20T01:46:57;17.00;92.40
30174;DHT22;16985;50.814;8.530;2023-07-20T01:49:23;17.10;92.40
30174;DHT22;16985;50.814;8.530;2023-07-20T01:51:49;17.00;92.50
30174;DHT22;16985;50.814;8.530;2023-07-20T01:54:16;17.00;92.70
30174;DHT22;16985;50.814;8.530;2023-07-20T01:56:42;17.00;93.00
30174;DHT22;16985;50.814;8.530;2023-07-20T01:59:07;17.00;93.10
30174;DHT22;16985;50.814;8.530;2023-07-20T02:01:33;17.00;93.40
30174;DHT22;16985;50.814;8.530;2023-07-20T02:03:59;16.90;93.60
30174;DHT22;16985;50.814;8.530;2023-07-20T02:06:25;17.00;94.20
30174;DHT22;16985;50.814;8.530;2023-07-20T02:08:51;16.90;94.50
30174;DHT22;16985;50.814;8.530;2023-07-20T02:11:16;16.90;94.50
30174;DHT22;16985;50.814;8.530;2023-07-20T02:13:42;16.90;94.70
30174;DHT22;16985;50.814;8.530;2023-07-20T02:16:08;16.90;95.20
30174;DHT22;16985;50.814;8.530;2023-07-20T02:18:34;16.90;95.50
30174;DHT22;16985;50.814;8.530;2023-07-20T02:21:01;16.90;95.60
30174;DHT22;16985;50.814;8.530;2023-07-20T02:23:27;16.80;95.80
30174;DHT22;16985;50.814;8.530;2023-07-20T02:25:53;16.90;96.20
30174;DHT22;16985;50.814;8.530;2023-07-20T02:28:19;16.90;96.40
30174;DHT22;16985;50.814;8.530;2023-07-20T02:30:44;16.90;96.30
30174;DHT22;16985;50.814;8.530;2023-07-20T02:33:11;16.90;96.30
30174;DHT22;16985;50.814;8.530;2023-07-20T02:35:37;16.90;96.40
30174;DHT22;16985;50.814;8.530;2023-07-20T02:38:03;16.90;96.30
30174;DHT22;16985;50.814;8.530;2023-07-20T02:40:29;16.90;96.50
30174;DHT22;16985;50.814;8.530;2023-07-20T02:42:54;16.90;96.60
30174;DHT22;16985;50.814;8.530;2023-07-20T02:45:20;17.00;96.80
30174;DHT22;16985;50.814;8.530;2023-07-20T02:47:46;17.00;96.80
30174;DHT22;16985;50.814;8.530;2023-07-20T02:50:12;16.90;96.90
30174;DHT22;16985;50.814;8.530;2023-07-20T02:52:39;16.90;96.90
30174;DHT22;16985;50.814;8.530;2023-07-20T02:55:05;16.90;96.90
30174;DHT22;16985;50.814;8.530;2023-07-20T02:57:31;17.00;97.00
30174;DHT22;16985;50.814;8.530;2023-07-20T02:59:57;16.90;97.10
30174;DHT22;16985;50.814;8.530;2023-07-20T03:02:23;17.00;97.10
30174;DHT22;16985;50.814;8.530;2023-07-20T03:04:49;16.90;97.20
30174;DHT22;16985;50.814;8.530;2023-07-20T03:07:14;17.00;97.00
30174;DHT22;16985;50.814;8.530;2023-07-20T03:09:40;16.90;97.10
30174;DHT22;16985;50.814;8.530;2023-07-20T03:12:06;16.90;97.10
30174;DHT22;16985;50.814;8.530;2023-07-20T03:14:33;16.90;97.10
30174;DHT22;16985;50.814;8.530;2023-07-20T03:16:59;16.90;97.20
30174;DHT22;16985;50.814;8.530;2023-07-20T03:19:25;16.90;97.10
30174;DHT22;16985;50.814;8.530;2023-07-20T03:21:50;16.90;97.10
30174;DHT22;16985;50.814;8.530;2023-07-20T03:24:18;16.90;97.20
30174;DHT22;16985;50.814;8.530;2023-07-20T03:26:46;16.90;97.20
30174;DHT22;16985;50.814;8.530;2023-07-20T03:29:12;16.90;97.20
30174;DHT22;16985;50.814;8.530;2023-07-20T03:31:38;16.90;97.20
30174;DHT22;16985;50.814;8.530;2023-07-20T03:34:04;16.90;97.30
30174;DHT22;16985;50.814;8.530;2023-07-20T03:36:31;16.90;97.30
30174;DHT22;16985;50.814;8.530;2023-07-20T03:38:57;16.90;97.60
30174;DHT22;16985;50.814;8.530;2023-07-20T03:41:22;16.90;97.70
30174;DHT22;16985;50.814;8.530;2023-07-20T03:43:48;16.90;97.70
30174;DHT22;16985;50.814;8.530;2023-07-20T03:46:14;16.80;97.70
30174;DHT22;16985;50.814;8.530;2023-07-20T03:48:40;16.80;97.90
30174;DHT22;16985;50.814;8.530;2023-07-20T03:51:06;16.80;98.00
30174;DHT22;16985;50.814;8.530;2023-07-20T03:53:32;16.80;98.10
30174;DHT22;16985;50.814;8.530;2023-07-20T03:55:58;16.80;98.20
30174;DHT22;16985;50.814;8.530;2023-07-20T03:58:23;16.70;98.30
30174;DHT22;16985;50.814;8.530;2023-07-20T04:00:51;16.70;98.40
30174;DHT22;16985;50.814;8.530;2023-07-20T04:03:20;16.70;98.60
30174;DHT22;16985;50.814;8.530;2023-07-20T04:05:46;16.70;98.80
30174;DHT22;16985;50.814;8.530;2023-07-20T04:08:12;16.60;98.80
30174;DHT22;16985;50.814;8.530;2023-07-20T04:10:39;16.70;98.70
30174;DHT22;16985;50.814;8.530;2023-07-20T04:13:05;16.70;98.90
30174;DHT22;16985;50.814;8.530;2023-07-20T04:15:32;16.60;99.30
30174;DHT22;16985;50.814;8.530;2023-07-20T04:17:57;16.70;99.80
30174;DHT22;16985;50.814;8.530;2023-07-20T04:20:24;16.70;99.70
30174;DHT22;16985;50.814;8.530;2023-07-20T04:22:50;16.70;99.50
30174;DHT22;16985;50.814;8.530;2023-07-20T04:25:17;16.60;99.50
30174;DHT22;16985;50.814;8.530;2023-07-20T04:27:43;16.70;99.80
30174;DHT22;16985;50.814;8.530;2023-07-20T04:30:10;16.60;99.70
30174;DHT22;16985;50.814;8.530;2023-07-20T04:32:38;16.60;99.80
30174;DHT22;16985;50.814;8.530;2023-07-20T04:35:11;16.60;99.90
30174;DHT22;16985;50.814;8.530;2023-07-20T04:37:39;16.60;99.90
30174;DHT22;16985;50.814;8.530;2023-07-20T04:40:15;16.60;99.90
30174;DHT22;16985;50.814;8.530;2023-07-20T04:42:41;16.60;99.90
30174;DHT22;16985;50.814;8.530;2023-07-20T04:45:07;16.60;99.90
30174;DHT22;16985;50.814;8.530;2023-07-20T04:47:34;16.60;99.90
30174;DHT22;16985;50.814;8.530;2023-07-20T04:50:00;16.60;99.90
30174;DHT22;16985;50.814;8.530;2023-07-20T04:52:27;16.50;99.90
30174;DHT22;16985;50.814;8.530;2023-07-20T04:54:53;16.60;99.90
30174;DHT22;16985;50.814;8.530;2023-07-20T04:57:19;16.50;99.90
30174;DHT22;16985;50.814;8.530;2023-07-20T04:59:47;16.60;99.90
30174;DHT22;16985;50.814;8.530;2023-07-20T05:02:13;16.60;99.90
30174;DHT22;16985;50.814;8.530;2023-07-20T05:04:39;16.60;99.90
30174;DHT22;16985;50.814;8.530;2023-07-20T05:07:06;16.60;99.90
30174;DHT22;16985;50.814;8.530;2023-07-20T05:09:32;16.60;99.90
30174;DHT22;16985;50.814;8.530;2023-07-20T05:11:58;16.60;99.90
30174;DHT22;16985;50.814;8.530;2023-07-20T05:14:24;16.60;99.90
30174;DHT22;16985;50.814;8.530;2023-07-20T05:16:51;16.70;99.90
30174;DHT22;16985;50.814;8.530;2023-07-20T05:19:17;16.50;99.90
30174;DHT22;16985;50.814;8.530;2023-07-20T05:21:43;16.70;99.90
30174;DHT22;16985;50.814;8.530;2023-07-20T05:24:09;16.60;99.90
30174;DHT22;16985;50.814;8.530;2023-07-20T05:26:35;16.70;99.90
30174;DHT22;16985;50.814;8.530;2023-07-20T05:29:00;16.70;99.90
30174;DHT22;16985;50.814;8.530;2023-07-20T05:31:26;16.60;99.90
30174;DHT22;16985;50.814;8.530;2023-07-20T05:33:52;16.70;99.90
30174;DHT22;16985;50.814;8.530;2023-07-20T05:36:19;16.80;99.90
30174;DHT22;16985;50.814;8.530;2023-07-20T05:38:44;16.80;99.90
30174;DHT22;16985;50.814;8.530;2023-07-20T05:41:10;16.80;99.90
30174;DHT22;16985;50.814;8.530;2023-07-20T05:43:36;16.80;99.90
30174;DHT22;16985;50.814;8.530;2023-07-20T05:46:02;16.80;99.90
30174;DHT22;16985;50.814;8.530;2023-07-20T08:51:41;20.40;76.40
30174;DHT22;16985;50.814;8.530;2023-07-20T08:54:09;20.60;76.10
30174;DHT22;16985;50.814;8.530;2023-07-20T08:56:38;20.50;76.00
30174;DHT22;16985;50.814;8.530;2023-07-20T08:59:05;20.70;76.00
30174;DHT22;16985;50.814;8.530;2023-07-20T09:01:31;20.70;75.80
30174;DHT22;16985;50.814;8.530;2023-07-20T09:03:57;20.80;75.40
30174;DHT22;16985;50.814;8.530;2023-07-20T09:06:23;20.90;74.60
30174;DHT22;16985;50.814;8.530;2023-07-20T09:08:49;21.00;74.30
30174;DHT22;16985;50.814;8.530;2023-07-20T09:11:15;21.10;73.90
30174;DHT22;16985;50.814;8.530;2023-07-20T09:13:41;21.30;73.70
30174;DHT22;16985;50.814;8.530;2023-07-20T09:16:07;21.40;73.60
30174;DHT22;16985;50.814;8.530;2023-07-20T09:18:33;21.50;73.40
30174;DHT22;16985;50.814;8.530;2023-07-20T09:21:06;21.60;72.10
30174;DHT22;16985;50.814;8.530;2023-07-20T09:23:36;21.60;72.00
30174;DHT22;16985;50.814;8.530;2023-07-20T09:26:13;21.70;71.90
30174;DHT22;16985;50.814;8.530;2023-07-20T09:28:53;21.80;72.10
30174;DHT22;16985;50.814;8.530;2023-07-20T09:31:21;21.80;71.70
30174;DHT22;16985;50.814;8.530;2023-07-20T09:33:49;21.80;71.50
30174;DHT22;16985;50.814;8.530;2023-07-20T09:36:16;21.70;71.20
30174;DHT22;16985;50.814;8.530;2023-07-20T09:38:42;21.70;71.30
30174;DHT22;16985;50.814;8.530;2023-07-20T09:41:18;21.70;71.70
30174;DHT22;16985;50.814;8.530;2023-07-20T09:43:45;21.80;71.70
30174;DHT22;16985;50.814;8.530;2023-07-20T09:46:11;21.80;71.70
30174;DHT22;16985;50.814;8.530;2023-07-20T09:48:37;21.90;71.70
30174;DHT22;16985;50.814;8.530;2023-07-20T09:51:03;22.00;71.70
30174;DHT22;16985;50.814;8.530;2023-07-20T09:53:32;22.10;71.30
30174;DHT22;16985;50.814;8.530;2023-07-20T09:55:59;22.00;71.10
30174;DHT22;16985;50.814;8.530;2023-07-20T09:58:26;22.00;70.90
30174;DHT22;16985;50.814;8.530;2023-07-20T10:00:57;21.90;71.00
30174;DHT22;16985;50.814;8.530;2023-07-20T10:03:28;21.90;71.20
30174;DHT22;16985;50.814;8.530;2023-07-20T10:06:02;21.90;71.40
30174;DHT22;16985;50.814;8.530;2023-07-20T10:08:33;21.90;71.90
30174;DHT22;16985;50.814;8.530;2023-07-20T10:11:04;21.80;72.10
30174;DHT22;16985;50.814;8.530;2023-07-20T10:13:31;21.80;72.30
30174;DHT22;16985;50.814;8.530;2023-07-20T10:16:02;21.80;72.20
30174;DHT22;16985;50.814;8.530;2023-07-20T10:18:37;21.80;72.00
30174;DHT22;16985;50.814;8.530;2023-07-20T10:21:07;21.70;71.40
30174;DHT22;16985;50.814;8.530;2023-07-20T10:23:34;21.80;71.30
30174;DHT22;16985;50.814;8.530;2023-07-20T10:26:01;21.80;70.80
30174;DHT22;16985;50.814;8.530;2023-07-20T10:28:28;21.90;70.20
30174;DHT22;16985;50.814;8.530;2023-07-20T10:30:57;22.00;70.00
30174;DHT22;16985;50.814;8.530;2023-07-20T10:33:24;22.00;69.60
30174;DHT22;16985;50.814;8.530;2023-07-20T10:35:55;22.00;69.80
30174;DHT22;16985;50.814;8.530;2023-07-20T10:44:01;21.90;68.00
30174;DHT22;16985;50.814;8.530;2023-07-20T10:46:35;21.80;68.20
30174;DHT22;16985;50.814;8.530;2023-07-20T10:49:09;21.70;68.50
30174;DHT22;16985;50.814;8.530;2023-07-20T10:56:41;21.40;70.10
30174;DHT22;16985;50.814;8.530;2023-07-20T10:59:41;21.20;71.00
30174;DHT22;16985;50.814;8.530;2023-07-20T11:02:07;21.20;71.30
30174;DHT22;16985;50.814;8.530;2023-07-20T11:04:45;21.00;71.80
30174;DHT22;16985;50.814;8.530;2023-07-20T11:07:15;21.10;72.40
30174;DHT22;16985;50.814;8.530;2023-07-20T11:09:42;21.10;73.00
30174;DHT22;16985;50.814;8.530;2023-07-20T11:12:17;21.10;73.20
30174;DHT22;16985;50.814;8.530;2023-07-20T11:17:19;21.00;73.40
30174;DHT22;16985;50.814;8.530;2023-07-20T11:19:56;21.00;73.70
30174;DHT22;16985;50.814;8.530;2023-07-20T11:22:23;21.10;74.00
30174;DHT22;16985;50.814;8.530;2023-07-20T11:24:48;21.20;74.10
30174;DHT22;16985;50.814;8.530;2023-07-20T11:27:17;21.30;73.10
30174;DHT22;16985;50.814;8.530;2023-07-20T11:29:47;21.50;71.80
30174;DHT22;16985;50.814;8.530;2023-07-20T11:32:20;21.60;71.30
30174;DHT22;16985;50.814;8.530;2023-07-20T11:34:50;21.50;71.20
30174;DHT22;16985;50.814;8.530;2023-07-20T11:37:16;21.60;70.90
30174;DHT22;16985;50.814;8.530;2023-07-20T11:39:43;21.60;70.50
30174;DHT22;16985;50.814;8.530;2023-07-20T11:42:09;21.60;70.00
30174;DHT22;16985;50.814;8.530;2023-07-20T11:44:35;21.80;70.00
30174;DHT22;16985;50.814;8.530;2023-07-20T11:47:09;22.00;70.00
30174;DHT22;16985;50.814;8.530;2023-07-20T11:49:39;22.20;69.00
30174;DHT22;16985;50.814;8.530;2023-07-20T11:52:10;22.30;68.30
30174;DHT22;16985;50.814;8.530;2023-07-20T11:54:39;22.60;67.80
30174;DHT22;16985;50.814;8.530;2023-07-20T11:57:05;22.80;67.50
30174;DHT22;16985;50.814;8.530;2023-07-20T11:59:32;23.00;66.60
30174;DHT22;16985;50.814;8.530;2023-07-20T12:02:01;23.10;65.50
30174;DHT22;16985;50.814;8.530;2023-07-20T12:04:28;23.30;65.20
30174;DHT22;16985;50.814;8.530;2023-07-20T12:06:55;23.40;64.60
30174;DHT22;16985;50.814;8.530;2023-07-20T12:09:20;23.50;63.80
30174;DHT22;16985;50.814;8.530;2023-07-20T12:11:49;23.60;63.70
30174;DHT22;16985;50.814;8.530;2023-07-20T12:14:15;23.60;63.50
30174;DHT22;16985;50.814;8.530;2023-07-20T12:16:41;23.80;62.30
30174;DHT22;16985;50.814;8.530;2023-07-20T12:19:12;23.80;62.40
30174;DHT22;16985;50.814;8.530;2023-07-20T12:21:40;23.90;62.00
30174;DHT22;16985;50.814;8.530;2023-07-20T12:24:09;23.90;61.80
30174;DHT22;16985;50.814;8.530;2023-07-20T12:26:36;23.80;61.70
30174;DHT22;16985;50.814;8.530;2023-07-20T12:29:02;23.80;62.00
30174;DHT22;16985;50.814;8.530;2023-07-20T12:31:29;23.70;62.00
30174;DHT22;16985;50.814;8.530;2023-07-20T12:33:57;23.60;62.30
30174;DHT22;16985;50.814;8.530;2023-07-20T12:36:24;23.50;62.70
30174;DHT22;16985;50.814;8.530;2023-07-20T12:38:50;23.30;63.10
30174;DHT22;16985;50.814;8.530;2023-07-20T12:41:16;23.20;63.60
30174;DHT22;16985;50.814;8.530;2023-07-20T12:43:44;23.10;64.10
30174;DHT22;16985;50.814;8.530;2023-07-20T12:46:11;22.90;64.20
30174;DHT22;16985;50.814;8.530;2023-07-20T12:48:39;22.80;64.70
30174;DHT22;16985;50.814;8.530;2023-07-20T12:51:07;22.70;65.10
30174;DHT22;16985;50.814;8.530;2023-07-20T12:53:34;22.60;65.70
30174;DHT22;16985;50.814;8.530;2023-07-20T12:56:00;22.50;66.20
30174;DHT22;16985;50.814;8.530;2023-07-20T12:58:26;22.50;66.50
30174;DHT22;16985;50.814;8.530;2023-07-20T13:00:53;22.40;66.70
30174;DHT22;16985;50.814;8.530;2023-07-20T13:03:19;22.40;66.90
30174;DHT22;16985;50.814;8.530;2023-07-20T13:05:45;22.40;66.90
30174;DHT22;16985;50.814;8.530;2023-07-20T13:08:11;22.40;66.90
30174;DHT22;16985;50.814;8.530;2023-07-20T13:10:38;22.40;67.00
30174;DHT22;16985;50.814;8.530;2023-07-20T13:13:04;22.40;67.00
30174;DHT22;16985;50.814;8.530;2023-07-20T13:15:31;22.30;67.10
30174;DHT22;16985;50.814;8.530;2023-07-20T13:17:58;22.40;67.30
30174;DHT22;16985;50.814;8.530;2023-07-20T13:20:25;22.30;67.30
30174;DHT22;16985;50.814;8.530;2023-07-20T13:22:51;22.40;67.00
30174;DHT22;16985;50.814;8.530;2023-07-20T13:25:17;22.40;66.90
30174;DHT22;16985;50.814;8.530;2023-07-20T13:27:44;22.50;67.00
30174;DHT22;16985;50.814;8.530;2023-07-20T13:30:10;22.70;66.90
30174;DHT22;16985;50.814;8.530;2023-07-20T13:32:42;22.90;66.30
30174;DHT22;16985;50.814;8.530;2023-07-20T13:35:09;23.00;65.00
30174;DHT22;16985;50.814;8.530;2023-07-20T13:37:36;23.10;64.40
30174;DHT22;16985;50.814;8.530;2023-07-20T13:40:02;23.30;64.10
30174;DHT22;16985;50.814;8.530;2023-07-20T13:42:30;23.30;63.60
30174;DHT22;16985;50.814;8.530;2023-07-20T13:44:56;23.30;63.00
30174;DHT22;16985;50.814;8.530;2023-07-20T13:47:22;23.30;63.30
30174;DHT22;16985;50.814;8.530;2023-07-20T13:49:48;23.30;62.60
30174;DHT22;16985;50.814;8.530;2023-07-20T13:52:15;23.30;60.80
30174;DHT22;16985;50.814;8.530;2023-07-20T13:54:41;23.20;60.70
30174;DHT22;16985;50.814;8.530;2023-07-20T13:57:06;23.20;61.10
30174;DHT22;16985;50.814;8.530;2023-07-20T13:59:32;23.20;61.30
30174;DHT22;16985;50.814;8.530;2023-07-20T14:01:58;23.20;61.70
30174;DHT22;16985;50.814;8.530;2023-07-20T14:04:24;23.30;62.00
30174;DHT22;16985;50.814;8.530;2023-07-20T14:06:50;23.30;62.20
30174;DHT22;16985;50.814;8.530;2023-07-20T14:09:16;23.40;62.30
30174;DHT22;16985;50.814;8.530;2023-07-20T14:11:42;23.40;62.60
30174;DHT22;16985;50.814;8.530;2023-07-20T14:14:08;23.60;63.00
30174;DHT22;16985;50.814;8.530;2023-07-20T14:16:33;23.70;63.30
30174;DHT22;16985;50.814;8.530;2023-07-20T14:18:59;23.90;63.10
30174;DHT22;16985;50.814;8.530;2023-07-20T14:21:25;24.00;62.60
30174;DHT22;16985;50.814;8.530;2023-07-20T14:23:52;24.10;61.90
30174;DHT22;16985;50.814;8.530;2023-07-20T14:26:20;24.10;61.50
30174;DHT22;16985;50.814;8.530;2023-07-20T14:28:46;24.10;61.40
30174;DHT22;16985;50.814;8.530;2023-07-20T14:31:12;24.10;61.00
30174;DHT22;16985;50.814;8.530;2023-07-20T14:33:38;24.10;61.10
30174;DHT22;16985;50.814;8.530;2023-07-20T14:36:05;24.20;61.30
30174;DHT22;16985;50.814;8.530;2023-07-20T14:38:33;24.20;61.20
30174;DHT22;16985;50.814;8.530;2023-07-20T14:40:59;24.10;60.20
30174;DHT22;16985;50.814;8.530;2023-07-20T14:43:25;24.20;59.60
30174;DHT22;16985;50.814;8.530;2023-07-20T14:45:51;24.10;59.10
30174;DHT22;16985;50.814;8.530;2023-07-20T14:48:16;24.20;59.00
30174;DHT22;16985;50.814;8.530;2023-07-20T14:50:42;24.00;58.80
30174;DHT22;16985;50.814;8.530;2023-07-20T14:53:12;24.00;58.60
30174;DHT22;16985;50.814;8.530;2023-07-20T14:55:41;24.00;58.80
30174;DHT22;16985;50.814;8.530;2023-07-20T14:58:11;23.90;58.60
30174;DHT22;16985;50.814;8.530;2023-07-20T15:00:43;23.90;58.60
30174;DHT22;16985;50.814;8.530;2023-07-20T15:03:27;23.90;58.10
30174;DHT22;16985;50.814;8.530;2023-07-20T15:05:52;23.90;58.20
30174;DHT22;16985;50.814;8.530;2023-07-20T15:08:18;23.90;57.70
30174;DHT22;16985;50.814;8.530;2023-07-20T15:10:45;23.80;57.80
30174;DHT22;16985;50.814;8.530;2023-07-20T15:13:13;23.80;57.60
30174;DHT22;16985;50.814;8.530;2023-07-20T15:15:39;23.80;57.80
30174;DHT22;16985;50.814;8.530;2023-07-20T15:18:05;23.70;57.70
30174;DHT22;16985;50.814;8.530;2023-07-20T15:20:31;23.70;57.30
30174;DHT22;16985;50.814;8.530;2023-07-20T15:22:58;23.70;57.10
30174;DHT22;16985;50.814;8.530;2023-07-20T15:25:24;23.70;57.10
30174;DHT22;16985;50.814;8.530;2023-07-20T15:27:50;23.60;56.60
30174;DHT22;16985;50.814;8.530;2023-07-20T15:30:17;23.60;56.60
30174;DHT22;16985;50.814;8.530;2023-07-20T15:32:43;23.60;56.30
30174;DHT22;16985;50.814;8.530;2023-07-20T15:35:10;23.60;56.40
30174;DHT22;16985;50.814;8.530;2023-07-20T15:37:36;23.60;56.60
30174;DHT22;16985;50.814;8.530;2023-07-20T15:40:02;23.60;56.90
30174;DHT22;16985;50.814;8.530;2023-07-20T15:42:31;23.50;56.50
30174;DHT22;16985;50.814;8.530;2023-07-20T15:44:57;23.50;56.30
30174;DHT22;16985;50.814;8.530;2023-07-20T15:47:23;23.50;56.30
30174;DHT22;16985;50.814;8.530;2023-07-20T15:49:49;23.50;56.30
30174;DHT22;16985;50.814;8.530;2023-07-20T15:52:15;23.40;56.10
30174;DHT22;16985;50.814;8.530;2023-07-20T15:54:42;23.40;56.30
30174;DHT22;16985;50.814;8.530;2023-07-20T15:57:08;23.40;56.80
30174;DHT22;16985;50.814;8.530;2023-07-20T15:59:34;23.30;57.30
30174;DHT22;16985;50.814;8.530;2023-07-20T16:02:01;23.30;57.50
30174;DHT22;16985;50.814;8.530;2023-07-20T16:04:27;23.30;57.70
30174;DHT22;16985;50.814;8.530;2023-07-20T16:06:52;23.30;57.80
30174;DHT22;16985;50.814;8.530;2023-07-20T16:09:19;23.20;57.90
30174;DHT22;16985;50.814;8.530;2023-07-20T16:11:45;23.10;57.80
30174;DHT22;16985;50.814;8.530;2023-07-20T16:14:11;23.10;58.10
30174;DHT22;16985;50.814;8.530;2023-07-20T16:16:37;23.10;58.40
30174;DHT22;16985;50.814;8.530;2023-07-20T16:19:03;23.00;58.60
30174;DHT22;16985;50.814;8.530;2023-07-20T16:21:29;23.00;58.80
30174;DHT22;16985;50.814;8.530;2023-07-20T16:23:57;23.00;59.00
30174;DHT22;16985;50.814;8.530;2023-07-20T16:26:24;22.90;59.20
30174;DHT22;16985;50.814;8.530;2023-07-20T16:28:50;22.90;59.50
30174;DHT22;16985;50.814;8.530;2023-07-20T16:31:17;22.80;59.70
30174;DHT22;16985;50.814;8.530;2023-07-20T16:33:44;22.90;59.80
30174;DHT22;16985;50.814;8.530;2023-07-20T16:36:11;22.90;59.70
30174;DHT22;16985;50.814;8.530;2023-07-20T16:38:41;22.80;59.60
30174;DHT22;16985;50.814;8.530;2023-07-20T16:41:09;22.80;59.50
30174;DHT22;16985;50.814;8.530;2023-07-20T16:43:38;22.60;59.50
30174;DHT22;16985;50.814;8.530;2023-07-20T16:46:05;22.80;59.60
30174;DHT22;16985;50.814;8.530;2023-07-20T16:48:32;22.70;59.60
30174;DHT22;16985;50.814;8.530;2023-07-20T16:50:59;22.70;59.40
30174;DHT22;16985;50.814;8.530;2023-07-20T16:53:25;22.70;59.40
30174;DHT22;16985;50.814;8.530;2023-07-20T16:55:51;22.70;59.50
30174;DHT22;16985;50.814;8.530;2023-07-20T16:58:25;22.70;59.60
30174;DHT22;16985;50.814;8.530;2023-07-20T17:00:59;22.70;59.70
30174;DHT22;16985;50.814;8.530;2023-07-20T17:03:30;22.60;59.80
30174;DHT22;16985;50.814;8.530;2023-07-20T17:05:56;22.50;60.00
30174;DHT22;16985;50.814;8.530;2023-07-20T17:08:22;22.50;59.90
30174;DHT22;16985;50.814;8.530;2023-07-20T17:10:48;22.60;59.90
30174;DHT22;16985;50.814;8.530;2023-07-20T17:13:14;22.50;60.00
30174;DHT22;16985;50.814;8.530;2023-07-20T17:15:41;22.50;60.00
30174;DHT22;16985;50.814;8.530;2023-07-20T17:18:11;22.50;60.10
30174;DHT22;16985;50.814;8.530;2023-07-20T17:20:36;22.50;60.40
30174;DHT22;16985;50.814;8.530;2023-07-20T17:23:02;22.50;60.70
30174;DHT22;16985;50.814;8.530;2023-07-20T17:25:28;22.40;59.20
30174;DHT22;16985;50.814;8.530;2023-07-20T17:27:55;22.40;59.20
30174;DHT22;16985;50.814;8.530;2023-07-20T17:30:20;22.40;59.00
30174;DHT22;16985;50.814;8.530;2023-07-20T17:32:48;22.30;58.80
30174;DHT22;16985;50.814;8.530;2023-07-20T17:35:14;22.30;59.50
30174;DHT22;16985;50.814;8.530;2023-07-20T17:37:40;22.30;59.80
30174;DHT22;16985;50.814;8.530;2023-07-20T17:40:08;22.30;60.10
30174;DHT22;16985;50.814;8.530;2023-07-20T17:42:35;22.30;59.20
30174;DHT22;16985;50.814;8.530;2023-07-20T17:45:01;22.20;59.10
30174;DHT22;16985;50.814;8.530;2023-07-20T17:47:27;22.20;59.30
30174;DHT22;16985;50.814;8.530;2023-07-20T17:49:53;22.20;59.20
30174;DHT22;16985;50.814;8.530;2023-07-20T17:52:19;22.10;59.30
30174;DHT22;16985;50.814;8.530;2023-07-20T17:54:46;22.10;59.00
30174;DHT22;16985;50.814;8.530;2023-07-20T17:57:11;22.10;59.00
30174;DHT22;16985;50.814;8.530;2023-07-20T17:59:37;22.10;59.30
30174;DHT22;16985;50.814;8.530;2023-07-20T18:02:06;22.10;60.70
30174;DHT22;16985;50.814;8.530;2023-07-20T18:04:32;22.00;60.90
30174;DHT22;16985;50.814;8.530;2023-07-20T18:07:01;22.00;61.00
30174;DHT22;16985;50.814;8.530;2023-07-20T18:09:27;21.90;61.40
30174;DHT22;16985;50.814;8.530;2023-07-20T18:11:57;21.90;62.00
30174;DHT22;16985;50.814;8.530;2023-07-20T18:14:23;21.80;63.10
30174;DHT22;16985;50.814;8.530;2023-07-20T18:16:48;21.80;62.50
30174;DHT22;16985;50.814;8.530;2023-07-20T18:19:14;21.70;62.70
30174;DHT22;16985;50.814;8.530;2023-07-20T18:21:40;21.70;63.00
30174;DHT22;16985;50.814;8.530;2023-07-20T18:24:06;21.60;63.60
30174;DHT22;16985;50.814;8.530;2023-07-20T18:26:32;21.60;63.60
30174;DHT22;16985;50.814;8.530;2023-07-20T18:28:59;21.50;63.90
30174;DHT22;16985;50.814;8.530;2023-07-20T18:31:25;21.50;64.20
30174;DHT22;16985;50.814;8.530;2023-07-20T18:33:51;21.40;64.20
30174;DHT22;16985;50.814;8.530;2023-07-20T18:36:20;21.40;64.00
30174;DHT22;16985;50.814;8.530;2023-07-20T18:38:46;21.30;64.20
30174;DHT22;16985;50.814;8.530;2023-07-20T18:41:12;21.20;64.30
30174;DHT22;16985;50.814;8.530;2023-07-20T18:43:39;21.20;64.70
30174;DHT22;16985;50.814;8.530;2023-07-20T18:46:04;21.10;65.10
30174;DHT22;16985;50.814;8.530;2023-07-20T18:48:30;21.00;65.50
30174;DHT22;16985;50.814;8.530;2023-07-20T18:50:56;20.90;65.60
30174;DHT22;16985;50.814;8.530;2023-07-20T18:53:22;20.90;65.50